sensor_id;sensor_type;location;lat;lon;timestamp;pressure;altitude;pressure_sealevel;temperature;humidity
28626;BME280;18905;42.668;23.364;2023-06-22T00:01:19;95527.41;;;21.94;100.00
28626;BME280;18905;42.668;23.364;2023-06-22T00:03:44;95427.81;;;21.31;100.00
28626;BME280;18905;42.668;23.364;2023-06-22T00:06:10;95422.66;;;21.26;100.00
28626;BME280;18905;42.668;23.364;2023-06-22T00:08:35;95407.63;;;21.13;100.00
28626;BME280;18905;42.668;23.364;2023-06-22T00:11:01;95456.50;;;21.33;100.00
28626;BME280;18905;42.668;23.364;2023-06-22T00:13:26;95500.75;;;21.65;100.00
28626;BME280;18905;42.668;23.364;2023-06-22T00:15:51;95463.25;;;21.43;100.00
28626;BME280;18905;42.668;23.364;2023-06-22T00:18:17;95515.84;;;21.78;100.00
28626;BME280;18905;42.668;23.364;2023-06-22T00:20:42;95405.22;;;21.08;100.00
28626;BME280;18905;42.668;23.364;2023-06-22T00:23:08;95494.41;;;21.57;100.00
28626;BME280;18905;42.668;23.364;2023-06-22T00:25:40;95487.44;;;21.67;100.00
28626;BME280;18905;42.668;23.364;2023-06-22T00:28:06;95498.13;;;21.72;100.00
28626;BME280;18905;42.668;23.364;2023-06-22T00:30:32;95483.97;;;21.70;100.00
28626;BME280;18905;42.668;23.364;2023-06-22T00:32:58;95489.41;;;21.66;100.00
28626;BME280;18905;42.668;23.364;2023-06-22T00:35:25;95476.31;;;21.53;100.00
28626;BME280;18905;42.668;23.364;2023-06-22T00:37:58;95494.00;;;21.55;100.00
28626;BME280;18905;42.668;23.364;2023-06-22T00:40:29;95443.81;;;21.22;100.00
28626;BME280;18905;42.668;23.364;2023-06-22T00:42:56;95493.44;;;21.39;100.00
28626;BME280;18905;42.668;23.364;2023-06-22T00:45:25;95488.38;;;21.41;100.00
28626;BME280;18905;42.668;23.364;2023-06-22T00:47:57;95428.22;;;20.96;100.00
28626;BME280;18905;42.668;23.364;2023-06-22T00:50:25;95470.44;;;21.18;100.00
28626;BME280;18905;42.668;23.364;2023-06-22T00:52:52;95479.22;;;21.34;100.00
28626;BME280;18905;42.668;23.364;2023-06-22T00:55:19;95399.56;;;20.31;100.00
28626;BME280;18905;42.668;23.364;2023-06-22T00:57:46;95490.09;;;20.34;100.00
28626;BME280;18905;42.668;23.364;2023-06-22T01:00:13;95501.06;;;20.60;100.00
28626;BME280;18905;42.668;23.364;2023-06-22T01:02:44;95448.69;;;20.43;100.00
28626;BME280;18905;42.668;23.364;2023-06-22T01:05:18;95440.78;;;20.38;100.00
28626;BME280;18905;42.668;23.364;2023-06-22T01:10:49;95508.72;;;21.04;100.00
28626;BME280;18905;42.668;23.364;2023-06-22T01:13:28;95499.31;;;21.05;100.00
28626;BME280;18905;42.668;23.364;2023-06-22T01:16:03;95425.84;;;20.65;100.00
28626;BME280;18905;42.668;23.364;2023-06-22T01:18:32;95432.97;;;20.69;100.00
28626;BME280;18905;42.668;23.364;2023-06-22T01:21:02;95447.00;;;20.64;100.00
28626;BME280;18905;42.668;23.364;2023-06-22T01:23:44;95518.47;;;20.71;100.00
28626;BME280;18905;42.668;23.364;2023-06-22T01:29:00;95429.31;;;20.32;100.00
28626;BME280;18905;42.668;23.364;2023-06-22T01:31:29;95468.19;;;20.38;100.00
28626;BME280;18905;42.668;23.364;2023-06-22T01:34:02;95512.97;;;20.71;100.00
28626;BME280;18905;42.668;23.364;2023-06-22T01:36:29;95373.78;;;19.83;100.00
28626;BME280;18905;42.668;23.364;2023-06-22T01:38:56;95499.66;;;20.73;100.00
28626;BME280;18905;42.668;23.364;2023-06-22T01:41:25;95482.13;;;20.81;100.00
28626;BME280;18905;42.668;23.364;2023-06-22T01:43:52;95452.78;;;20.56;100.00
28626;BME280;18905;42.668;23.364;2023-06-22T01:46:18;95396.75;;;20.27;100.00
28626;BME280;18905;42.668;23.364;2023-06-22T01:48:45;95469.91;;;20.75;100.00
28626;BME280;18905;42.668;23.364;2023-06-22T01:51:11;95460.81;;;20.71;100.00
28626;BME280;18905;42.668;23.364;2023-06-22T01:53:36;95494.78;;;20.89;100.00
28626;BME280;18905;42.668;23.364;2023-06-22T01:56:02;95427.56;;;20.47;100.00
28626;BME280;18905;42.668;23.364;2023-06-22T01:58:29;95431.06;;;20.44;100.00
28626;BME280;18905;42.668;23.364;2023-06-22T02:01:15;95495.69;;;20.71;100.00
28626;BME280;18905;42.668;23.364;2023-06-22T02:03:48;95501.47;;;20.62;100.00
28626;BME280;18905;42.668;23.364;2023-06-22T02:06:24;95513.97;;;20.60;100.00
28626;BME280;18905;42.668;23.364;2023-06-22T02:08:59;95470.56;;;20.39;100.00
28626;BME280;18905;42.668;23.364;2023-06-22T02:11:26;95523.19;;;20.45;100.00
28626;BME280;18905;42.668;23.364;2023-06-22T02:13:53;95500.31;;;20.37;100.00
28626;BME280;18905;42.668;23.364;2023-06-22T02:16:19;95462.44;;;20.17;100.00
28626;BME280;18905;42.668;23.364;2023-06-22T02:18:48;95499.19;;;20.38;100.00
28626;BME280;18905;42.668;23.364;2023-06-22T02:21:21;95513.94;;;20.56;100.00
28626;BME280;18905;42.668;23.364;2023-06-22T02:23:47;95524.75;;;20.46;100.00
28626;BME280;18905;42.668;23.364;2023-06-22T02:26:12;95513.97;;;20.34;100.00
28626;BME280;18905;42.668;23.364;2023-06-22T02:28:38;95445.44;;;19.85;100.00
28626;BME280;18905;42.668;23.364;2023-06-22T02:31:04;95531.41;;;20.45;100.00
28626;BME280;18905;42.668;23.364;2023-06-22T02:33:30;95427.94;;;19.93;100.00
28626;BME280;18905;42.668;23.364;2023-06-22T02:35:55;95517.94;;;20.62;100.00
28626;BME280;18905;42.668;23.364;2023-06-22T02:38:20;95518.34;;;20.64;100.00
28626;BME280;18905;42.668;23.364;2023-06-22T02:40:46;95413.94;;;19.98;100.00
28626;BME280;18905;42.668;23.364;2023-06-22T02:43:12;95447.97;;;20.20;100.00
28626;BME280;18905;42.668;23.364;2023-06-22T02:45:38;95494.63;;;20.49;100.00
28626;BME280;18905;42.668;23.364;2023-06-22T02:48:04;95477.69;;;20.44;100.00
28626;BME280;18905;42.668;23.364;2023-06-22T02:50:30;95470.25;;;20.44;100.00
28626;BME280;18905;42.668;23.364;2023-06-22T02:52:55;95508.16;;;20.65;100.00
28626;BME280;18905;42.668;23.364;2023-06-22T02:55:20;95527.50;;;20.72;100.00
28626;BME280;18905;42.668;23.364;2023-06-22T02:57:46;95523.25;;;20.78;100.00
28626;BME280;18905;42.668;23.364;2023-06-22T03:00:14;95481.72;;;20.50;100.00
28626;BME280;18905;42.668;23.364;2023-06-22T03:02:46;95524.13;;;20.85;100.00
28626;BME280;18905;42.668;23.364;2023-06-22T03:05:13;95512.25;;;21.04;100.00
28626;BME280;18905;42.668;23.364;2023-06-22T03:07:43;95521.53;;;21.26;100.00
28626;BME280;18905;42.668;23.364;2023-06-22T03:10:09;95531.97;;;21.46;100.00
28626;BME280;18905;42.668;23.364;2023-06-22T03:12:35;95466.00;;;21.06;100.00
28626;BME280;18905;42.668;23.364;2023-06-22T03:15:01;95544.22;;;21.52;100.00
28626;BME280;18905;42.668;23.364;2023-06-22T03:17:26;95482.22;;;21.18;100.00
28626;BME280;18905;42.668;23.364;2023-06-22T03:19:51;95511.47;;;21.37;100.00
28626;BME280;18905;42.668;23.364;2023-06-22T03:22:17;95503.66;;;21.39;100.00
28626;BME280;18905;42.668;23.364;2023-06-22T03:24:42;95491.66;;;21.21;100.00
28626;BME280;18905;42.668;23.364;2023-06-22T03:27:07;95498.59;;;21.11;100.00
28626;BME280;18905;42.668;23.364;2023-06-22T03:29:33;95502.94;;;21.12;100.00
28626;BME280;18905;42.668;23.364;2023-06-22T03:31:59;95498.78;;;21.25;100.00
28626;BME280;18905;42.668;23.364;2023-06-22T03:34:24;95535.72;;;21.64;100.00
28626;BME280;18905;42.668;23.364;2023-06-22T03:36:50;95558.75;;;21.86;100.00
28626;BME280;18905;42.668;23.364;2023-06-22T03:39:16;95538.78;;;21.92;100.00
28626;BME280;18905;42.668;23.364;2023-06-22T03:41:41;95504.59;;;21.93;100.00
28626;BME280;18905;42.668;23.364;2023-06-22T03:44:06;95502.88;;;22.22;100.00
28626;BME280;18905;42.668;23.364;2023-06-22T03:46:32;95497.13;;;22.41;100.00
28626;BME280;18905;42.668;23.364;2023-06-22T03:48:57;95543.84;;;22.88;100.00
28626;BME280;18905;42.668;23.364;2023-06-22T03:51:23;95468.56;;;22.56;100.00
28626;BME280;18905;42.668;23.364;2023-06-22T03:53:48;95502.94;;;22.86;100.00
28626;BME280;18905;42.668;23.364;2023-06-22T03:56:13;95518.31;;;22.91;100.00
28626;BME280;18905;42.668;23.364;2023-06-22T03:58:45;95561.72;;;23.15;100.00
28626;BME280;18905;42.668;23.364;2023-06-22T04:01:10;95502.13;;;22.82;100.00
28626;BME280;18905;42.668;23.364;2023-06-22T04:03:37;95544.38;;;23.14;100.00
28626;BME280;18905;42.668;23.364;2023-06-22T04:06:03;95542.75;;;22.99;100.00
28626;BME280;18905;42.668;23.364;2023-06-22T04:08:28;95580.56;;;23.09;100.00
28626;BME280;18905;42.668;23.364;2023-06-22T04:10:53;95525.97;;;22.54;100.00
28626;BME280;18905;42.668;23.364;2023-06-22T04:13:19;95555.13;;;22.65;100.00
28626;BME280;18905;42.668;23.364;2023-06-22T04:15:44;95467.88;;;22.19;100.00
28626;BME280;18905;42.668;23.364;2023-06-22T04:18:10;95469.56;;;22.34;100.00
28626;BME280;18905;42.668;23.364;2023-06-22T04:20:35;95543.03;;;22.77;100.00
28626;BME280;18905;42.668;23.364;2023-06-22T04:23:01;95443.78;;;22.02;100.00
28626;BME280;18905;42.668;23.364;2023-06-22T04:25:27;95545.06;;;22.94;100.00
28626;BME280;18905;42.668;23.364;2023-06-22T04:27:52;95534.53;;;23.10;100.00
28626;BME280;18905;42.668;23.364;2023-06-22T04:30:17;95520.50;;;23.32;100.00
28626;BME280;18905;42.668;23.364;2023-06-22T04:32:44;95546.56;;;23.59;100.00
28626;BME280;18905;42.668;23.364;2023-06-22T04:35:10;95524.56;;;23.63;100.00
28626;BME280;18905;42.668;23.364;2023-06-22T04:37:35;95526.94;;;23.75;100.00
28626;BME280;18905;42.668;23.364;2023-06-22T04:40:01;95550.59;;;23.86;100.00
28626;BME280;18905;42.668;23.364;2023-06-22T04:42:26;95528.19;;;23.95;100.00
28626;BME280;18905;42.668;23.364;2023-06-22T04:44:52;95491.13;;;24.03;100.00
28626;BME280;18905;42.668;23.364;2023-06-22T04:47:18;95416.25;;;23.69;100.00
28626;BME280;18905;42.668;23.364;2023-06-22T04:49:43;95546.34;;;24.55;100.00
28626;BME280;18905;42.668;23.364;2023-06-22T04:52:11;95554.25;;;24.88;100.00
28626;BME280;18905;42.668;23.364;2023-06-22T04:54:38;95557.31;;;25.08;100.00
28626;BME280;18905;42.668;23.364;2023-06-22T04:57:05;95435.94;;;24.45;100.00
28626;BME280;18905;42.668;23.364;2023-06-22T04:59:36;95571.91;;;25.22;100.00
28626;BME280;18905;42.668;23.364;2023-06-22T05:02:02;95549.41;;;25.24;100.00
28626;BME280;18905;42.668;23.364;2023-06-22T05:04:29;95556.50;;;25.28;100.00
28626;BME280;18905;42.668;23.364;2023-06-22T05:06:58;95573.72;;;25.71;100.00
28626;BME280;18905;42.668;23.364;2023-06-22T05:09:24;95566.78;;;25.28;100.00
28626;BME280;18905;42.668;23.364;2023-06-22T05:11:52;95564.41;;;25.37;100.00
28626;BME280;18905;42.668;23.364;2023-06-22T05:14:18;95560.16;;;25.97;97.64
28626;BME280;18905;42.668;23.364;2023-06-22T05:16:44;95506.31;;;26.09;93.55
28626;BME280;18905;42.668;23.364;2023-06-22T05:19:10;95537.19;;;26.55;91.70
28626;BME280;18905;42.668;23.364;2023-06-22T05:21:36;95511.75;;;26.23;90.28
28626;BME280;18905;42.668;23.364;2023-06-22T05:24:01;95565.25;;;26.64;90.85
28626;BME280;18905;42.668;23.364;2023-06-22T05:26:29;95559.28;;;27.09;86.91
28626;BME280;18905;42.668;23.364;2023-06-22T05:28:55;95553.69;;;27.13;86.94
28626;BME280;18905;42.668;23.364;2023-06-22T05:31:20;95571.88;;;27.21;91.72
28626;BME280;18905;42.668;23.364;2023-06-22T05:33:47;95575.13;;;27.09;87.46
28626;BME280;18905;42.668;23.364;2023-06-22T05:36:13;95580.66;;;27.12;86.19
28626;BME280;18905;42.668;23.364;2023-06-22T05:38:39;95576.72;;;27.06;85.83
28626;BME280;18905;42.668;23.364;2023-06-22T05:41:05;95569.28;;;27.00;88.64
28626;BME280;18905;42.668;23.364;2023-06-22T05:43:31;95586.28;;;26.58;90.56
28626;BME280;18905;42.668;23.364;2023-06-22T05:45:57;95597.91;;;26.35;93.71
28626;BME280;18905;42.668;23.364;2023-06-22T05:48:22;95570.75;;;26.13;95.04
28626;BME280;18905;42.668;23.364;2023-06-22T05:50:48;95581.56;;;25.86;96.25
28626;BME280;18905;42.668;23.364;2023-06-22T05:53:13;95586.03;;;25.56;96.06
28626;BME280;18905;42.668;23.364;2023-06-22T05:55:39;95597.72;;;25.91;95.12
28626;BME280;18905;42.668;23.364;2023-06-22T05:58:04;95588.69;;;26.49;93.00
28626;BME280;18905;42.668;23.364;2023-06-22T06:00:30;95579.66;;;26.92;90.00
28626;BME280;18905;42.668;23.364;2023-06-22T06:02:56;95565.03;;;26.88;88.17
28626;BME280;18905;42.668;23.364;2023-06-22T06:05:22;95568.72;;;27.19;86.66
28626;BME280;18905;42.668;23.364;2023-06-22T06:07:49;95591.03;;;27.75;83.53
28626;BME280;18905;42.668;23.364;2023-06-22T06:10:14;95596.22;;;28.33;81.52
28626;BME280;18905;42.668;23.364;2023-06-22T06:12:40;95570.28;;;28.70;78.46
28626;BME280;18905;42.668;23.364;2023-06-22T06:15:05;95557.59;;;28.69;80.24
28626;BME280;18905;42.668;23.364;2023-06-22T06:17:31;95574.13;;;29.03;77.11
28626;BME280;18905;42.668;23.364;2023-06-22T06:19:56;95560.13;;;28.83;76.75
28626;BME280;18905;42.668;23.364;2023-06-22T06:22:21;95582.09;;;29.43;75.22
28626;BME280;18905;42.668;23.364;2023-06-22T06:24:49;95577.88;;;29.58;73.09
28626;BME280;18905;42.668;23.364;2023-06-22T06:27:14;95577.00;;;30.00;70.21
28626;BME280;18905;42.668;23.364;2023-06-22T06:29:40;95563.81;;;29.85;69.61
28626;BME280;18905;42.668;23.364;2023-06-22T06:32:05;95569.88;;;29.99;69.95
28626;BME280;18905;42.668;23.364;2023-06-22T06:34:31;95561.25;;;29.74;71.34
28626;BME280;18905;42.668;23.364;2023-06-22T06:36:56;95554.44;;;29.36;72.22
28626;BME280;18905;42.668;23.364;2023-06-22T06:39:22;95576.50;;;29.47;74.19
28626;BME280;18905;42.668;23.364;2023-06-22T06:41:47;95570.66;;;29.18;72.60
28626;BME280;18905;42.668;23.364;2023-06-22T06:44:13;95551.63;;;29.59;72.32
28626;BME280;18905;42.668;23.364;2023-06-22T06:46:38;95548.75;;;29.82;70.34
28626;BME280;18905;42.668;23.364;2023-06-22T06:49:03;95560.78;;;29.37;74.48
28626;BME280;18905;42.668;23.364;2023-06-22T06:51:29;95563.19;;;29.35;74.69
28626;BME280;18905;42.668;23.364;2023-06-22T06:53:54;95554.31;;;29.63;73.98
28626;BME280;18905;42.668;23.364;2023-06-22T06:56:20;95533.91;;;29.69;72.78
28626;BME280;18905;42.668;23.364;2023-06-22T06:58:45;95537.69;;;29.79;72.72
28626;BME280;18905;42.668;23.364;2023-06-22T07:01:14;95566.00;;;29.93;70.03
28626;BME280;18905;42.668;23.364;2023-06-22T07:03:39;95528.31;;;29.11;70.81
28626;BME280;18905;42.668;23.364;2023-06-22T07:06:05;95544.84;;;28.72;74.14
28626;BME280;18905;42.668;23.364;2023-06-22T07:08:30;95533.94;;;28.61;76.06
28626;BME280;18905;42.668;23.364;2023-06-22T07:10:56;95545.88;;;28.81;76.76
28626;BME280;18905;42.668;23.364;2023-06-22T07:13:22;95548.66;;;28.58;74.48
28626;BME280;18905;42.668;23.364;2023-06-22T07:15:47;95552.75;;;28.50;76.20
28626;BME280;18905;42.668;23.364;2023-06-22T07:18:12;95528.78;;;28.33;77.70
28626;BME280;18905;42.668;23.364;2023-06-22T07:20:38;95492.97;;;28.15;78.20
28626;BME280;18905;42.668;23.364;2023-06-22T07:23:04;95553.44;;;29.04;75.08
28626;BME280;18905;42.668;23.364;2023-06-22T07:25:30;95556.09;;;28.88;74.80
28626;BME280;18905;42.668;23.364;2023-06-22T07:28:02;95542.81;;;28.99;72.99
28626;BME280;18905;42.668;23.364;2023-06-22T07:30:29;95552.34;;;28.25;77.35
28626;BME280;18905;42.668;23.364;2023-06-22T07:32:54;95537.38;;;28.69;75.56
28626;BME280;18905;42.668;23.364;2023-06-22T07:35:20;95546.72;;;28.78;74.93
28626;BME280;18905;42.668;23.364;2023-06-22T07:37:45;95536.00;;;29.03;76.33
28626;BME280;18905;42.668;23.364;2023-06-22T07:40:12;95542.28;;;29.27;72.51
28626;BME280;18905;42.668;23.364;2023-06-22T07:42:37;95532.97;;;29.37;72.63
28626;BME280;18905;42.668;23.364;2023-06-22T07:45:04;95552.59;;;29.07;74.54
28626;BME280;18905;42.668;23.364;2023-06-22T07:47:30;95547.34;;;27.83;80.76
28626;BME280;18905;42.668;23.364;2023-06-22T07:49:58;95538.59;;;27.88;80.86
28626;BME280;18905;42.668;23.364;2023-06-22T07:52:26;95548.09;;;28.43;79.24
28626;BME280;18905;42.668;23.364;2023-06-22T07:54:51;95548.75;;;28.51;77.54
28626;BME280;18905;42.668;23.364;2023-06-22T07:57:17;95529.69;;;28.76;76.04
28626;BME280;18905;42.668;23.364;2023-06-22T07:59:42;95529.41;;;29.36;72.46
28626;BME280;18905;42.668;23.364;2023-06-22T08:02:08;95547.19;;;28.96;75.58
28626;BME280;18905;42.668;23.364;2023-06-22T08:04:34;95548.44;;;28.72;76.43
28626;BME280;18905;42.668;23.364;2023-06-22T08:07:00;95524.13;;;28.53;75.99
28626;BME280;18905;42.668;23.364;2023-06-22T08:09:28;95537.06;;;29.09;76.53
28626;BME280;18905;42.668;23.364;2023-06-22T08:11:53;95507.78;;;29.24;73.89
28626;BME280;18905;42.668;23.364;2023-06-22T08:14:20;95533.19;;;29.85;72.17
28626;BME280;18905;42.668;23.364;2023-06-22T08:16:46;95536.50;;;29.96;72.65
28626;BME280;18905;42.668;23.364;2023-06-22T08:19:11;95530.22;;;30.47;70.80
28626;BME280;18905;42.668;23.364;2023-06-22T08:21:37;95524.38;;;30.73;69.99
28626;BME280;18905;42.668;23.364;2023-06-22T08:24:03;95521.06;;;30.78;72.58
28626;BME280;18905;42.668;23.364;2023-06-22T08:26:28;95521.03;;;30.30;65.86
28626;BME280;18905;42.668;23.364;2023-06-22T08:28:54;95517.78;;;30.67;65.19
28626;BME280;18905;42.668;23.364;2023-06-22T08:31:19;95508.31;;;30.29;65.38
28626;BME280;18905;42.668;23.364;2023-06-22T08:33:45;95506.34;;;29.55;69.87
28626;BME280;18905;42.668;23.364;2023-06-22T08:36:11;95492.69;;;28.60;73.33
28626;BME280;18905;42.668;23.364;2023-06-22T08:38:38;95514.75;;;28.43;77.87
28626;BME280;18905;42.668;23.364;2023-06-22T08:41:04;95517.94;;;28.88;74.94
28626;BME280;18905;42.668;23.364;2023-06-22T08:43:29;95502.22;;;28.32;76.68
28626;BME280;18905;42.668;23.364;2023-06-22T08:45:55;95520.63;;;28.72;85.90
28626;BME280;18905;42.668;23.364;2023-06-22T08:48:20;95523.31;;;29.22;79.40
28626;BME280;18905;42.668;23.364;2023-06-22T08:50:45;95526.03;;;29.06;80.61
28626;BME280;18905;42.668;23.364;2023-06-22T08:53:11;95514.19;;;28.56;84.13
28626;BME280;18905;42.668;23.364;2023-06-22T08:55:36;95502.31;;;28.02;87.02
28626;BME280;18905;42.668;23.364;2023-06-22T08:58:02;95494.09;;;28.67;78.45
28626;BME280;18905;42.668;23.364;2023-06-22T09:00:29;95509.53;;;29.57;71.32
28626;BME280;18905;42.668;23.364;2023-06-22T09:02:57;95510.59;;;29.99;72.78
28626;BME280;18905;42.668;23.364;2023-06-22T09:05:24;95503.28;;;29.89;73.49
28626;BME280;18905;42.668;23.364;2023-06-22T09:07:51;95504.31;;;30.14;69.36
28626;BME280;18905;42.668;23.364;2023-06-22T09:10:16;95507.28;;;30.87;67.23
28626;BME280;18905;42.668;23.364;2023-06-22T09:12:42;95507.53;;;30.45;64.96
28626;BME280;18905;42.668;23.364;2023-06-22T09:15:08;95489.00;;;30.22;68.91
28626;BME280;18905;42.668;23.364;2023-06-22T09:17:33;95506.50;;;30.87;65.26
28626;BME280;18905;42.668;23.364;2023-06-22T09:19:59;95488.66;;;30.36;62.67
28626;BME280;18905;42.668;23.364;2023-06-22T09:22:25;95487.44;;;30.37;63.95
28626;BME280;18905;42.668;23.364;2023-06-22T09:24:54;95484.47;;;31.21;61.06
28626;BME280;18905;42.668;23.364;2023-06-22T09:27:20;95495.44;;;31.56;59.78
28626;BME280;18905;42.668;23.364;2023-06-22T09:29:46;95483.81;;;31.01;57.77
28626;BME280;18905;42.668;23.364;2023-06-22T09:32:11;95495.38;;;30.71;62.72
28626;BME280;18905;42.668;23.364;2023-06-22T09:34:36;95499.91;;;31.25;67.55
28626;BME280;18905;42.668;23.364;2023-06-22T09:37:02;95487.75;;;31.60;58.84
28626;BME280;18905;42.668;23.364;2023-06-22T09:39:27;95501.03;;;31.28;56.96
28626;BME280;18905;42.668;23.364;2023-06-22T09:41:52;95504.81;;;31.05;60.24
28626;BME280;18905;42.668;23.364;2023-06-22T09:44:18;95506.78;;;30.44;62.27
28626;BME280;18905;42.668;23.364;2023-06-22T09:46:43;95481.72;;;30.76;62.05
28626;BME280;18905;42.668;23.364;2023-06-22T09:49:09;95489.59;;;30.94;64.08
28626;BME280;18905;42.668;23.364;2023-06-22T09:51:34;95497.53;;;30.79;62.75
28626;BME280;18905;42.668;23.364;2023-06-22T09:54:00;95498.78;;;30.78;62.82
28626;BME280;18905;42.668;23.364;2023-06-22T09:56:25;95483.06;;;31.00;60.49
28626;BME280;18905;42.668;23.364;2023-06-22T09:58:53;95466.72;;;29.87;59.29
28626;BME280;18905;42.668;23.364;2023-06-22T10:01:18;95487.19;;;30.80;58.54
28626;BME280;18905;42.668;23.364;2023-06-22T10:03:46;95469.72;;;30.92;58.49
28626;BME280;18905;42.668;23.364;2023-06-22T10:06:11;95448.31;;;30.89;57.31
28626;BME280;18905;42.668;23.364;2023-06-22T10:08:36;95478.50;;;31.06;57.73
28626;BME280;18905;42.668;23.364;2023-06-22T10:11:03;95459.72;;;31.23;57.41
28626;BME280;18905;42.668;23.364;2023-06-22T10:13:28;95474.91;;;31.63;60.64
28626;BME280;18905;42.668;23.364;2023-06-22T10:15:54;95463.16;;;31.84;59.77
28626;BME280;18905;42.668;23.364;2023-06-22T10:18:19;95473.56;;;32.21;54.94
28626;BME280;18905;42.668;23.364;2023-06-22T10:20:47;95463.50;;;31.57;56.34
28626;BME280;18905;42.668;23.364;2023-06-22T10:23:13;95465.50;;;32.10;57.04
28626;BME280;18905;42.668;23.364;2023-06-22T10:25:38;95461.84;;;31.60;60.48
28626;BME280;18905;42.668;23.364;2023-06-22T10:28:04;95472.97;;;31.19;55.56
28626;BME280;18905;42.668;23.364;2023-06-22T10:30:29;95462.22;;;31.33;60.82
28626;BME280;18905;42.668;23.364;2023-06-22T10:32:54;95458.16;;;31.63;56.04
28626;BME280;18905;42.668;23.364;2023-06-22T10:35:20;95430.16;;;31.25;52.56
28626;BME280;18905;42.668;23.364;2023-06-22T10:37:46;95452.25;;;30.75;51.39
28626;BME280;18905;42.668;23.364;2023-06-22T10:40:13;95460.00;;;30.68;52.79
28626;BME280;18905;42.668;23.364;2023-06-22T10:42:40;95452.34;;;30.88;50.32
28626;BME280;18905;42.668;23.364;2023-06-22T10:45:06;95450.59;;;31.22;52.44
28626;BME280;18905;42.668;23.364;2023-06-22T10:47:31;95450.88;;;31.81;49.07
28626;BME280;18905;42.668;23.364;2023-06-22T10:49:57;95438.69;;;32.00;48.44
28626;BME280;18905;42.668;23.364;2023-06-22T10:52:22;95460.59;;;31.48;48.43
28626;BME280;18905;42.668;23.364;2023-06-22T10:54:47;95448.22;;;31.49;49.29
28626;BME280;18905;42.668;23.364;2023-06-22T10:57:13;95436.69;;;31.47;48.84
28626;BME280;18905;42.668;23.364;2023-06-22T10:59:39;95399.28;;;31.32;50.25
28626;BME280;18905;42.668;23.364;2023-06-22T11:02:04;95432.66;;;31.36;50.17
28626;BME280;18905;42.668;23.364;2023-06-22T11:04:30;95451.63;;;30.84;52.48
28626;BME280;18905;42.668;23.364;2023-06-22T11:06:55;95435.56;;;31.32;50.14
28626;BME280;18905;42.668;23.364;2023-06-22T11:09:21;95395.41;;;31.67;50.01
28626;BME280;18905;42.668;23.364;2023-06-22T11:11:47;95423.13;;;32.24;48.79
28626;BME280;18905;42.668;23.364;2023-06-22T11:14:13;95442.91;;;32.17;51.38
28626;BME280;18905;42.668;23.364;2023-06-22T11:16:38;95435.09;;;32.50;47.81
28626;BME280;18905;42.668;23.364;2023-06-22T11:19:05;95386.00;;;31.36;49.96
28626;BME280;18905;42.668;23.364;2023-06-22T11:21:31;95415.38;;;31.12;49.95
28626;BME280;18905;42.668;23.364;2023-06-22T11:23:57;95434.38;;;31.58;49.73
28626;BME280;18905;42.668;23.364;2023-06-22T11:26:22;95371.22;;;30.66;50.91
28626;BME280;18905;42.668;23.364;2023-06-22T11:28:48;95374.84;;;31.36;50.60
28626;BME280;18905;42.668;23.364;2023-06-22T11:31:14;95414.00;;;31.99;49.73
28626;BME280;18905;42.668;23.364;2023-06-22T11:33:39;95418.25;;;32.16;49.48
28626;BME280;18905;42.668;23.364;2023-06-22T11:36:05;95413.09;;;31.77;50.34
28626;BME280;18905;42.668;23.364;2023-06-22T11:38:30;95403.31;;;31.44;49.67
28626;BME280;18905;42.668;23.364;2023-06-22T11:41:00;95417.88;;;30.94;51.13
28626;BME280;18905;42.668;23.364;2023-06-22T11:43:25;95388.84;;;30.92;50.78
28626;BME280;18905;42.668;23.364;2023-06-22T11:45:51;95421.59;;;31.04;50.40
28626;BME280;18905;42.668;23.364;2023-06-22T11:48:16;95411.88;;;31.24;50.52
28626;BME280;18905;42.668;23.364;2023-06-22T11:50:42;95405.31;;;31.43;49.84
28626;BME280;18905;42.668;23.364;2023-06-22T11:53:07;95378.09;;;31.35;49.53
28626;BME280;18905;42.668;23.364;2023-06-22T11:55:33;95346.50;;;31.38;49.90
28626;BME280;18905;42.668;23.364;2023-06-22T11:57:58;95281.19;;;31.23;50.03
28626;BME280;18905;42.668;23.364;2023-06-22T12:00:26;95396.00;;;32.12;49.37
28626;BME280;18905;42.668;23.364;2023-06-22T12:02:51;95399.81;;;31.93;49.71
28626;BME280;18905;42.668;23.364;2023-06-22T12:05:20;95398.69;;;32.03;51.08
28626;BME280;18905;42.668;23.364;2023-06-22T12:07:53;95373.94;;;31.39;49.44
28626;BME280;18905;42.668;23.364;2023-06-22T12:10:19;95405.78;;;31.13;62.80
28626;BME280;18905;42.668;23.364;2023-06-22T12:12:44;95364.13;;;30.94;49.89
28626;BME280;18905;42.668;23.364;2023-06-22T12:15:10;95407.78;;;31.13;57.39
28626;BME280;18905;42.668;23.364;2023-06-22T12:17:36;95421.03;;;30.80;53.31
28626;BME280;18905;42.668;23.364;2023-06-22T12:20:01;95418.41;;;30.13;59.02
28626;BME280;18905;42.668;23.364;2023-06-22T12:22:31;95421.97;;;29.23;66.68
28626;BME280;18905;42.668;23.364;2023-06-22T12:24:57;95373.94;;;28.64;69.82
28626;BME280;18905;42.668;23.364;2023-06-22T12:27:23;95405.50;;;28.73;69.89
28626;BME280;18905;42.668;23.364;2023-06-22T12:29:48;95410.50;;;28.58;73.80
28626;BME280;18905;42.668;23.364;2023-06-22T12:32:14;95430.00;;;28.78;72.81
28626;BME280;18905;42.668;23.364;2023-06-22T12:34:42;95444.31;;;28.57;77.19
28626;BME280;18905;42.668;23.364;2023-06-22T12:37:10;95451.88;;;28.30;78.30
28626;BME280;18905;42.668;23.364;2023-06-22T12:39:36;95454.81;;;27.66;87.92
28626;BME280;18905;42.668;23.364;2023-06-22T12:42:02;95439.22;;;27.76;86.35
28626;BME280;18905;42.668;23.364;2023-06-22T12:44:27;95442.88;;;27.69;83.33
28626;BME280;18905;42.668;23.364;2023-06-22T12:46:53;95407.28;;;27.64;84.38